Time;durP1;ratioP1;P1;durP2;ratioP2;P2;SDS_P1;SDS_P2;PMS_P1;PMS_P2;Temp;Humidity;BMP_temperature;BMP_pressure;BME280_temperature;BME280_humidity;BME280_pressure;Samples;Min_cycle;Max_cycle;Signal;HPM_P1;HPM_P2
2022/07/03 00:01:54;;;;;;;12.15;7.03;;;;;;;21.83;76.39;100715.72;4988782;28;20189;-85
2022/07/03 00:04:20;;;;;;;9.88;6.53;;;;;;;21.84;76.12;100720.09;4988594;28;20034;-85
2022/07/03 00:06:46;;;;;;;10.20;6.50;;;;;;;21.94;75.99;100719.16;4991382;28;20092;-84
2022/07/03 00:09:12;;;;;;;7.68;6.82;;;;;;;21.92;75.84;100711.28;5010986;28;20382;-78
2022/07/03 00:11:38;;;;;;;11.25;7.07;;;;;;;21.85;76.94;100735.00;5010121;28;20033;-77
2022/07/03 00:14:04;;;;;;;7.93;6.90;;;;;;;21.64;77.33;100726.31;5010867;28;20103;-81
2022/07/03 00:16:30;;;;;;;11.95;7.32;;;;;;;21.15;78.30;100659.09;5009394;28;20025;-81
2022/07/03 00:18:56;;;;;;;8.32;7.22;;;;;;;21.48;78.63;100729.00;5010311;28;20468;-83
2022/07/03 00:21:35;;;;;;;9.07;7.10;;;;;;;21.47;78.25;100731.63;5008175;28;20507;-80
2022/07/03 00:24:08;;;;;;;9.88;7.10;;;;;;;21.26;78.80;100717.69;5005267;28;20040;-78
2022/07/03 00:26:39;;;;;;;12.55;6.80;;;;;;;21.22;78.58;100686.19;5008968;28;20038;-82
2022/07/03 00:29:06;;;;;;;9.38;7.45;;;;;;;21.56;78.03;100717.59;5009015;28;20057;-80
2022/07/03 00:31:33;;;;;;;8.55;7.72;;;;;;;21.77;77.35;100728.03;5011047;28;20026;-81
2022/07/03 00:34:01;;;;;;;10.55;7.13;;;;;;;21.87;76.93;100722.69;5010148;28;20030;-80
2022/07/03 00:36:32;;;;;;;7.55;6.75;;;;;;;21.75;76.91;100718.41;5008906;28;20029;-79
2022/07/03 00:38:58;;;;;;;14.10;7.45;;;;;;;21.48;76.94;100689.59;5008636;28;20053;-80
2022/07/03 00:41:26;;;;;;;9.25;7.35;;;;;;;21.61;77.46;100710.59;5009753;28;20057;-78
2022/07/03 00:43:52;;;;;;;11.80;7.30;;;;;;;21.66;77.06;100714.06;5009750;28;20029;-79
2022/07/03 00:46:23;;;;;;;8.50;7.60;;;;;;;21.53;77.68;100712.34;5010216;28;20029;-79
2022/07/03 00:48:49;;;;;;;8.63;7.70;;;;;;;21.46;77.56;100688.72;5008889;28;20030;-82
2022/07/03 00:51:20;;;;;;;12.18;7.35;;;;;;;21.22;77.52;100644.19;5008560;28;20030;-83
2022/07/03 00:53:48;;;;;;;9.23;7.20;;;;;;;21.61;77.49;100706.19;5011696;28;20108;-82
2022/07/03 00:56:15;;;;;;;10.50;7.35;;;;;;;21.47;77.66;100682.59;5011405;28;20057;-83
2022/07/03 00:58:43;;;;;;;10.68;7.45;;;;;;;21.56;76.75;100672.94;5029385;28;20556;-82
2022/07/03 01:01:11;;;;;;;11.65;7.18;;;;;;;21.73;76.35;100693.88;4986568;28;20133;-80
2022/07/03 01:03:43;;;;;;;9.82;7.43;;;;;;;21.90;75.60;100701.66;4986806;28;20031;-82
2022/07/03 01:06:15;;;;;;;9.35;7.20;;;;;;;21.74;76.23;100691.22;4984445;28;20046;-79
2022/07/03 01:08:50;;;;;;;10.15;7.40;;;;;;;21.62;77.00;100691.28;4986637;28;20034;-79
2022/07/03 01:11:45;;;;;;;11.88;7.47;;;;;;;21.20;77.20;100636.31;4965518;28;20046;-80
2022/07/03 01:14:37;;;;;;;9.90;8.02;;;;;;;21.47;77.33;100687.84;4970167;28;20102;-80
2022/07/03 01:17:05;;;;;;;9.73;8.30;;;;;;;21.33;77.19;100658.13;4962759;28;20035;-80
2022/07/03 01:19:41;;;;;;;11.63;8.07;;;;;;;21.33;78.42;100689.66;4971853;28;20533;-80
2022/07/03 01:22:28;;;;;;;10.88;8.07;;;;;;;21.13;79.23;100693.25;4987957;28;20390;-78
2022/07/03 01:25:07;;;;;;;10.52;8.57;;;;;;;20.75;79.58;100628.59;4981127;28;20077;-81
2022/07/03 01:27:51;;;;;;;;;;;;;;;21.20;79.30;100690.56;4969144;28;20034;-79
2022/07/03 01:30:18;;;;;;;8.80;7.68;;;;;;;21.25;79.16;100688.81;4987687;28;19917;-80
2022/07/03 01:32:46;;;;;;;8.63;7.70;;;;;;;21.29;79.27;100699.28;5000563;28;20033;-80
2022/07/03 01:35:15;;;;;;;12.43;8.55;;;;;;;20.89;79.07;100597.06;5025550;28;20416;-81
2022/07/03 01:37:41;;;;;;;11.77;7.88;;;;;;;20.53;78.58;100523.69;5028788;28;20026;-80
2022/07/03 01:40:07;;;;;;;10.25;7.45;;;;;;;21.47;78.79;100687.84;5011560;28;20519;-80
2022/07/03 01:42:34;;;;;;;12.40;7.47;;;;;;;21.53;78.93;100688.69;5029707;28;20404;-79
2022/07/03 01:45:02;;;;;;;9.45;7.60;;;;;;;21.58;77.77;100669.44;5029624;28;20029;-76
2022/07/03 01:47:28;;;;;;;13.05;7.97;;;;;;;21.73;76.91;100678.13;5011399;28;20033;-78
2022/07/03 01:49:55;;;;;;;16.33;8.35;;;;;;;21.83;76.05;100694.69;5029597;28;20047;-79
2022/07/03 01:52:21;;;;;;;11.00;7.80;;;;;;;21.57;77.13;100693.06;5029462;28;20041;-78
2022/07/03 01:54:48;;;;;;;10.80;7.90;;;;;;;20.69;79.71;100641.69;5029714;28;20024;-85
2022/07/03 01:57:14;;;;;;;9.13;7.70;;;;;;;20.42;82.02;100693.28;5029803;28;20060;-81
2022/07/03 01:59:40;;;;;;;9.57;8.23;;;;;;;20.45;82.35;100716.91;5027724;28;20025;-81
2022/07/03 02:02:20;;;;;;;10.48;7.45;;;;;;;20.34;82.91;100702.94;5025162;28;20029;-80
2022/07/03 02:04:59;;;;;;;10.13;7.50;;;;;;;20.28;83.13;100689.81;5009363;28;20451;-78
2022/07/03 02:07:46;;;;;;;10.45;7.32;;;;;;;20.36;82.80;100699.44;5011929;28;20116;-78
2022/07/03 02:10:16;;;;;;;11.45;7.75;;;;;;;20.39;83.07;100701.19;5000559;28;20029;-79
2022/07/03 02:12:52;;;;;;;10.52;7.20;;;;;;;20.32;82.65;100681.94;5029621;28;20037;-79
2022/07/03 02:15:27;;;;;;;8.90;6.78;;;;;;;20.64;81.61;100709.03;5029714;28;20022;-78
2022/07/03 02:17:54;;;;;;;9.10;7.38;;;;;;;20.62;81.45;100722.16;5013499;28;20508;-78
2022/07/03 02:20:21;;;;;;;9.15;7.80;;;;;;;20.65;81.09;100702.94;5032844;28;20034;-79
2022/07/03 02:22:56;;;;;;;9.48;6.78;;;;;;;20.73;79.50;100688.06;5015025;28;20481;-79
2022/07/03 02:25:23;;;;;;;11.43;7.60;;;;;;;20.89;77.74;100698.56;4990952;28;20049;-79
2022/07/03 02:27:57;;;;;;;10.32;7.32;;;;;;;21.00;77.74;100707.28;4991089;28;20057;-80
2022/07/03 02:30:27;;;;;;;9.45;7.60;;;;;;;21.11;76.84;100695.00;4991335;28;20562;-79
2022/07/03 02:32:54;;;;;;;11.00;7.20;;;;;;;21.00;76.97;100694.16;4990764;28;20046;-77
2022/07/03 02:35:31;;;;;;;10.23;7.30;;;;;;;20.92;77.50;100680.16;4990359;28;20140;-80
2022/07/03 02:38:16;;;;;;;9.18;7.53;;;;;;;20.99;76.94;100706.38;4990894;28;20030;-83
2022/07/03 02:41:06;;;;;;;11.43;7.45;;;;;;;21.04;76.97;100711.63;4990157;28;20078;-79
2022/07/03 02:43:43;;;;;;;9.15;7.00;;;;;;;21.03;77.30;100707.25;4990734;28;20038;-83
2022/07/03 02:49:19;;;;;;;9.70;7.75;;;;;;;21.21;77.02;100714.22;4990409;28;20587;-85
2022/07/03 02:51:50;;;;;;;9.98;7.72;;;;;;;20.89;76.25;100646.06;4989673;28;20061;-82
2022/07/03 02:54:17;;;;;;;9.07;7.55;;;;;;;20.77;76.90;100637.34;4990378;28;20037;-82
2022/07/03 02:57:08;;;;;;;9.23;8.07;;;;;;;21.24;77.05;100715.97;5019491;28;20041;-91
2022/07/03 02:59:55;;;;;;;10.80;8.30;;;;;;;20.85;77.07;100661.81;5024908;28;20503;-85
2022/07/03 03:02:40;;;;;;;10.43;7.80;;;;;;;21.28;76.88;100733.44;5013829;28;20033;-81
2022/07/03 03:05:09;;;;;;;12.82;8.52;;;;;;;20.82;77.37;100663.56;5031464;28;20029;-81
2022/07/03 03:07:48;;;;;;;10.50;7.73;;;;;;;21.20;77.75;100717.72;5014239;28;20491;-77
2022/07/03 03:10:18;;;;;;;8.05;7.20;;;;;;;21.25;77.25;100725.59;5031917;28;20260;-81
2022/07/03 03:12:47;;;;;;;9.60;7.70;;;;;;;21.25;78.20;100736.94;5032082;28;20068;-80
2022/07/03 03:15:13;;;;;;;9.50;7.65;;;;;;;21.19;76.04;100736.09;5031774;28;20025;-80
2022/07/03 03:17:43;;;;;;;13.65;8.77;;;;;;;21.11;77.06;100730.84;5031512;28;20043;-86
2022/07/03 03:20:16;;;;;;;14.57;8.32;;;;;;;21.01;78.00;100733.50;5031874;28;20017;-80
2022/07/03 03:23:09;;;;;;;10.43;8.40;;;;;;;21.00;78.70;100744.88;5031769;28;20058;-84
2022/07/03 03:25:35;;;;;;;11.70;8.27;;;;;;;20.82;78.86;100714.31;5014163;28;20051;-86
2022/07/03 03:28:01;;;;;;;10.50;9.10;;;;;;;20.84;79.58;100722.16;5031980;28;20515;-80
2022/07/03 03:30:27;;;;;;;13.07;8.70;;;;;;;20.96;79.80;100718.63;5030719;28;20033;-83
2022/07/03 03:32:52;;;;;;;12.50;9.02;;;;;;;21.09;79.27;100728.25;5013751;28;20378;-82
2022/07/03 03:35:18;;;;;;;13.90;8.25;;;;;;;20.92;77.64;100703.78;5031818;28;20056;-80
2022/07/03 03:37:45;;;;;;;9.73;8.57;;;;;;;20.97;79.89;100725.63;5030111;28;20119;-79
2022/07/03 03:40:11;;;;;;;13.50;8.73;;;;;;;20.89;80.21;100730.03;5029609;28;20032;-78
2022/07/03 03:42:37;;;;;;;12.27;9.25;;;;;;;20.92;79.99;100719.53;5030973;28;20037;-84
2022/07/03 03:45:03;;;;;;;9.68;8.68;;;;;;;20.78;79.65;100681.06;5013536;28;20024;-83
2022/07/03 03:47:32;;;;;;;12.05;8.32;;;;;;;20.96;79.45;100703.78;5017098;28;20475;-83
2022/07/03 03:49:59;;;;;;;11.25;8.70;;;;;;;21.09;79.82;100716.88;5030689;28;20049;-78
2022/07/03 03:52:25;;;;;;;14.95;9.63;;;;;;;20.99;80.93;100721.25;5030453;28;20081;-80
2022/07/03 03:54:50;;;;;;;13.98;9.18;;;;;;;21.03;81.04;100733.50;5030210;28;20033;-87
2022/07/03 03:57:20;;;;;;;15.85;9.20;;;;;;;21.07;81.18;100723.88;5030621;28;20026;-85
2022/07/03 03:59:46;;;;;;;13.88;10.02;;;;;;;21.00;81.57;100705.50;5030602;28;20120;-80
2022/07/03 04:02:13;;;;;;;11.82;9.02;;;;;;;21.20;80.56;100706.31;5031084;28;20017;-79
2022/07/03 04:04:38;;;;;;;12.55;9.00;;;;;;;21.35;80.14;100714.16;5031380;28;20036;-81
2022/07/03 04:07:04;;;;;;;12.05;9.15;;;;;;;21.49;79.66;100712.34;5031255;28;20026;-81
2022/07/03 04:09:30;;;;;;;13.68;9.60;;;;;;;21.61;79.56;100707.97;5031127;28;20017;-80
2022/07/03 04:11:56;;;;;;;12.70;9.80;;;;;;;21.81;81.08;100721.84;5013676;28;20033;-80
2022/07/03 04:14:21;;;;;;;13.68;9.55;;;;;;;21.49;81.48;100657.19;5011527;28;20496;-80
2022/07/03 04:16:47;;;;;;;11.57;9.30;;;;;;;21.94;81.87;100708.66;5023702;28;20112;-82
2022/07/03 04:19:12;;;;;;;13.18;9.40;;;;;;;22.00;82.79;100707.75;5031054;28;20406;-81
2022/07/03 04:21:38;;;;;;;10.45;9.15;;;;;;;22.20;83.91;100726.88;5030598;28;20079;-80
2022/07/03 04:24:03;;;;;;;11.05;9.48;;;;;;;21.97;84.76;100695.50;5013446;28;20381;-80
2022/07/03 04:26:30;;;;;;;13.05;9.43;;;;;;;22.06;84.28;100719.09;5030566;28;20492;-81
2022/07/03 04:28:56;;;;;;;15.65;9.73;;;;;;;22.10;83.71;100714.69;5013056;28;20026;-80
2022/07/03 04:31:21;;;;;;;11.73;9.73;;;;;;;22.20;79.16;100720.75;5013132;28;20036;-79
2022/07/03 04:33:46;;;;;;;13.30;9.23;;;;;;;22.18;79.14;100723.41;5013047;28;20029;-80
2022/07/03 04:36:12;;;;;;;10.82;9.40;;;;;;;22.17;78.49;100712.88;5030214;28;20041;-81
2022/07/03 04:38:37;;;;;;;11.63;9.18;;;;;;;21.98;79.45;100678.81;5028958;28;20029;-78
2022/07/03 04:41:03;;;;;;;13.80;9.88;;;;;;;22.20;81.23;100715.50;5029607;28;20535;-80
2022/07/03 04:43:28;;;;;;;11.73;9.85;;;;;;;21.84;82.15;100654.41;5030260;28;20112;-79
2022/07/03 04:45:54;;;;;;;12.25;10.00;;;;;;;22.34;83.06;100718.88;5030240;28;20088;-78
2022/07/03 04:48:19;;;;;;;13.45;9.48;;;;;;;22.37;82.86;100715.34;5012436;28;20523;-82
2022/07/03 04:50:45;;;;;;;14.13;9.93;;;;;;;22.22;82.58;100690.94;5030003;28;20029;-81
2022/07/03 04:53:10;;;;;;;12.13;9.82;;;;;;;22.32;82.63;100720.66;5029976;28;20103;-78
2022/07/03 04:55:36;;;;;;;13.88;9.63;;;;;;;22.06;82.01;100670.91;5030220;28;20030;-81
2022/07/03 04:58:01;;;;;;;10.82;9.70;;;;;;;22.25;81.73;100708.44;5029321;28;20017;-80
2022/07/03 05:00:27;;;;;;;11.40;9.88;;;;;;;22.43;82.22;100742.53;5032218;28;20666;-85
2022/07/03 05:02:52;;;;;;;14.65;10.27;;;;;;;21.81;84.92;100707.84;5011124;28;20603;-85
2022/07/03 05:05:18;;;;;;;13.50;10.55;;;;;;;21.56;84.85;100671.19;5012536;28;20033;-84
2022/07/03 05:07:44;;;;;;;14.27;10.07;;;;;;;21.98;84.27;100723.50;5030530;28;20030;-80
2022/07/03 05:10:09;;;;;;;11.73;10.48;;;;;;;22.16;83.26;100742.69;5030112;28;20033;-84
2022/07/03 05:12:35;;;;;;;11.30;10.10;;;;;;;22.23;83.66;100732.13;5029817;28;20113;-86
2022/07/03 05:15:00;;;;;;;12.93;10.07;;;;;;;22.28;83.59;100725.06;5030019;28;20493;-86
2022/07/03 05:17:26;;;;;;;12.05;10.73;;;;;;;22.32;83.06;100725.03;5012335;28;20026;-85
2022/07/03 05:20:23;;;;;;;11.98;10.10;;;;;;;22.53;83.47;100739.81;5026766;28;20036;-85
2022/07/03 05:22:37;;;;;;;15.60;10.20;;;;;;;22.29;82.29;100679.47;5027468;28;20037;-86
2022/07/03 05:25:02;;;;;;;11.23;9.93;;;;;;;22.46;83.08;100736.38;5027362;28;20040;-86
2022/07/03 05:27:28;;;;;;;10.55;9.52;;;;;;;22.54;82.83;100733.66;5027369;28;20033;-88
2022/07/03 05:29:53;;;;;;;13.30;9.82;;;;;;;22.73;82.17;100742.25;5027439;28;20038;-88
2022/07/03 05:32:19;;;;;;;10.95;9.95;;;;;;;22.87;82.36;100745.66;5011649;28;20070;-89
2022/07/03 05:34:44;;;;;;;11.63;9.57;;;;;;;22.88;80.13;100728.97;5010925;28;20132;-84
2022/07/03 05:37:09;;;;;;;13.43;10.10;;;;;;;22.99;80.39;100739.41;5027408;28;20040;-85
2022/07/03 05:39:37;;;;;;;12.30;8.95;;;;;;;22.97;79.96;100724.50;5027418;28;20110;-82
2022/07/03 05:42:04;;;;;;;11.90;9.40;;;;;;;23.10;80.94;100742.81;5027148;28;20171;-80
2022/07/03 05:44:29;;;;;;;11.95;9.02;;;;;;;23.12;80.16;100748.03;5027276;28;20121;-84
2022/07/03 05:46:55;;;;;;;10.38;8.30;;;;;;;23.10;78.51;100732.28;5026874;28;20112;-87
2022/07/03 05:49:21;;;;;;;11.57;8.77;;;;;;;23.32;77.50;100749.63;5010704;28;20485;-82
2022/07/03 05:51:46;;;;;;;10.95;8.98;;;;;;;23.45;77.38;100743.31;5029450;28;20065;-87
2022/07/03 05:54:12;;;;;;;9.80;8.70;;;;;;;23.55;76.70;100749.34;5016094;28;20029;-83
2022/07/03 05:56:37;;;;;;;12.43;8.88;;;;;;;23.63;76.04;100725.50;5033552;28;20029;-81
2022/07/03 05:59:03;;;;;;;14.00;8.80;;;;;;;23.76;75.52;100727.09;4998948;28;20512;-81
2022/07/03 06:01:29;;;;;;;9.93;8.55;;;;;;;23.75;74.95;100715.69;5015512;28;20118;-81
2022/07/03 06:03:54;;;;;;;9.85;8.43;;;;;;;24.05;74.55;100739.91;5015499;28;20180;-84
2022/07/03 06:06:19;;;;;;;12.93;8.82;;;;;;;24.12;76.44;100730.13;5015668;28;20032;-85
2022/07/03 06:08:45;;;;;;;11.07;8.57;;;;;;;24.21;76.92;100747.59;5033473;28;20029;-82
2022/07/03 06:11:10;;;;;;;11.23;9.70;;;;;;;24.15;75.37;100702.84;5033123;28;20033;-83
2022/07/03 06:13:36;;;;;;;10.70;8.35;;;;;;;24.29;74.32;100724.59;5033385;28;20057;-82
2022/07/03 06:16:01;;;;;;;10.73;8.50;;;;;;;24.47;73.85;100744.53;5033056;28;20471;-86
2022/07/03 06:18:26;;;;;;;12.80;8.93;;;;;;;24.60;73.31;100736.41;5032750;28;20037;-86
2022/07/03 06:20:52;;;;;;;10.75;8.70;;;;;;;24.68;73.49;100750.41;5015509;28;20031;-86
2022/07/03 06:23:19;;;;;;;11.50;8.88;;;;;;;24.61;74.20;100725.84;5033452;28;20211;-87
2022/07/03 06:25:44;;;;;;;11.43;8.93;;;;;;;24.73;74.77;100753.81;5015219;28;20032;-82
2022/07/03 06:28:10;;;;;;;10.15;8.88;;;;;;;24.71;74.60;100753.84;5015350;28;20022;-85
2022/07/03 06:30:35;;;;;;;11.63;8.63;;;;;;;24.77;71.94;100744.09;5015202;28;20072;-81
2022/07/03 06:33:01;;;;;;;13.23;9.00;;;;;;;24.94;74.46;100749.94;5032605;28;20017;-91
2022/07/03 06:35:26;;;;;;;11.55;8.93;;;;;;;24.94;75.75;100757.84;5033003;28;20025;-87
2022/07/03 06:37:52;;;;;;;10.15;8.32;;;;;;;24.86;75.25;100734.22;5015673;28;20036;-89
2022/07/03 06:40:18;;;;;;;10.18;8.43;;;;;;;24.94;74.04;100735.88;5015038;28;20037;-85
2022/07/03 06:42:44;;;;;;;12.30;8.32;;;;;;;24.92;73.85;100727.94;5015230;28;20045;-88
2022/07/03 06:45:10;;;;;;;11.38;8.32;;;;;;;24.89;71.19;100719.25;5015159;28;20040;-85
2022/07/03 06:47:39;;;;;;;8.85;7.85;;;;;;;24.90;70.79;100718.31;5014879;28;20018;-80
2022/07/03 06:50:06;;;;;;;10.57;8.57;;;;;;;24.99;71.90;100715.53;5014915;28;20447;-83
2022/07/03 06:52:32;;;;;;;10.40;8.07;;;;;;;25.19;72.94;100738.91;5014365;28;20493;-86
2022/07/03 06:54:57;;;;;;;9.05;8.15;;;;;;;25.16;68.17;100733.66;5014683;28;20052;-83
2022/07/03 06:57:23;;;;;;;9.65;7.45;;;;;;;25.01;67.94;100690.81;5032326;28;20037;-84
2022/07/03 06:59:48;;;;;;;10.10;8.23;;;;;;;25.39;66.99;100727.97;5032034;28;20026;-86
2022/07/03 07:02:14;;;;;;;9.98;7.75;;;;;;;25.29;67.47;100721.09;5014666;28;20033;-84
2022/07/03 07:04:39;;;;;;;10.45;8.13;;;;;;;25.23;69.20;100700.09;5031306;28;20026;-87
2022/07/03 07:07:05;;;;;;;9.38;8.45;;;;;;;25.29;71.16;100705.25;5032306;28;20488;-86
2022/07/03 07:09:30;;;;;;;9.25;8.23;;;;;;;25.42;72.52;100721.75;5030116;28;20029;-86
2022/07/03 07:11:56;;;;;;;9.00;8.10;;;;;;;25.51;72.42;100717.13;4998438;28;20033;-79
2022/07/03 07:14:21;;;;;;;9.95;8.50;;;;;;;25.58;69.38;100709.06;5011934;28;20112;-86
2022/07/03 07:16:47;;;;;;;9.85;8.45;;;;;;;25.71;72.73;100709.66;5011655;28;20022;-81
2022/07/03 07:19:12;;;;;;;11.48;8.18;;;;;;;25.93;69.83;100718.88;5011903;28;20025;-83
2022/07/03 07:21:38;;;;;;;13.20;8.40;;;;;;;25.83;65.89;100677.66;5011953;28;20028;-82
2022/07/03 07:24:03;;;;;;;13.20;7.97;;;;;;;26.10;66.41;100699.97;5011769;28;20026;-84
2022/07/03 07:26:29;;;;;;;11.90;7.82;;;;;;;26.24;65.97;100697.00;4993722;28;20026;-84
2022/07/03 07:28:54;;;;;;;12.85;7.45;;;;;;;26.39;63.05;100721.34;5011961;28;20026;-82
2022/07/03 07:31:20;;;;;;;12.15;7.05;;;;;;;26.38;62.16;100698.44;5011183;28;20815;-86
2022/07/03 07:33:45;;;;;;;9.32;6.30;;;;;;;26.42;60.09;100693.03;4994101;28;20401;-84
2022/07/03 07:36:10;;;;;;;8.73;6.75;;;;;;;26.38;61.49;100670.19;5011618;28;20532;-83
2022/07/03 07:38:36;;;;;;;9.50;6.90;;;;;;;26.69;61.92;100697.66;5011709;28;20117;-87
2022/07/03 07:41:01;;;;;;;6.75;6.05;;;;;;;26.74;57.35;100695.78;5011509;28;20030;-85
2022/07/03 07:43:27;;;;;;;10.82;6.50;;;;;;;26.91;62.01;100717.38;5011486;28;20018;-84
2022/07/03 07:45:52;;;;;;;6.93;6.03;;;;;;;26.77;59.28;100693.91;4969213;28;20050;-85
2022/07/03 07:48:19;;;;;;;9.40;5.72;;;;;;;26.87;55.18;100709.56;4953243;28;20062;-86
2022/07/03 07:50:44;;;;;;;10.15;6.40;;;;;;;26.27;58.32;100585.78;4969607;28;20566;-84
2022/07/03 07:53:10;;;;;;;9.35;6.10;;;;;;;27.20;56.11;100718.34;4969621;28;20051;-88
2022/07/03 07:55:35;;;;;;;10.18;6.25;;;;;;;27.28;57.97;100697.78;4969474;28;20117;-86
2022/07/03 07:58:01;;;;;;;9.27;6.10;;;;;;;27.30;58.69;100705.69;4969528;28;20091;-87
2022/07/03 08:00:26;;;;;;;12.55;6.43;;;;;;;27.29;59.73;100698.66;4969222;28;20035;-86
2022/07/03 08:05:35;;;;;;;9.40;6.03;;;;;;;27.41;55.85;100713.38;4987887;28;20065;-83
2022/07/03 08:08:08;;;;;;;9.32;5.82;;;;;;;27.38;55.07;100681.63;4988602;28;20058;-87
2022/07/03 08:10:43;;;;;;;8.93;5.75;;;;;;;27.56;52.24;100701.44;4988588;28;20033;-86
2022/07/03 08:13:10;;;;;;;13.38;5.57;;;;;;;27.62;53.12;100684.50;4988926;28;20038;-85
2022/07/03 08:15:36;;;;;;;15.88;6.28;;;;;;;27.83;50.72;100698.88;4988596;28;20045;-83
2022/07/03 08:18:01;;;;;;;12.10;5.32;;;;;;;27.35;53.76;100583.63;5029212;28;20037;-86
2022/07/03 08:20:27;;;;;;;11.23;5.53;;;;;;;28.01;50.60;100673.53;5030290;28;20049;-85
2022/07/03 08:22:52;;;;;;;8.25;4.88;;;;;;;28.08;54.09;100677.75;5030468;28;20400;-85
2022/07/03 08:25:18;;;;;;;14.65;5.60;;;;;;;28.32;52.61;100715.03;5012265;28;20094;-86
2022/07/03 08:27:43;;;;;;;15.88;5.35;;;;;;;28.35;49.17;100688.34;5012676;28;20511;-78
2022/07/03 08:30:09;;;;;;;12.07;5.90;;;;;;;28.39;50.71;100682.88;5030622;28;20039;-82
2022/07/03 08:32:34;;;;;;;9.38;4.88;;;;;;;28.55;52.03;100682.38;5030456;28;20029;-82
2022/07/03 08:35:00;;;;;;;8.02;4.70;;;;;;;28.53;47.20;100668.28;5029924;28;20037;-83
2022/07/03 08:37:26;;;;;;;10.98;5.55;;;;;;;28.79;47.67;100693.09;5029798;28;20014;-79
2022/07/03 08:39:52;;;;;;;9.35;5.55;;;;;;;28.85;50.90;100703.50;5029824;28;20029;-79
2022/07/03 08:42:19;;;;;;;11.25;5.47;;;;;;;28.86;51.57;100703.44;5022223;28;20417;-79
2022/07/03 08:44:46;;;;;;;10.18;5.47;;;;;;;28.93;50.33;100700.56;5028872;28;20022;-82
2022/07/03 08:47:13;;;;;;;9.88;5.75;;;;;;;28.78;50.28;100676.28;5011884;28;20029;-83
2022/07/03 08:49:39;;;;;;;12.68;6.00;;;;;;;28.75;53.93;100672.84;5030047;28;20112;-82
2022/07/03 08:52:07;;;;;;;9.13;5.50;;;;;;;28.96;49.72;100703.09;5029562;28;20477;-80
2022/07/03 08:54:33;;;;;;;7.45;5.63;;;;;;;29.04;51.08;100695.72;5012240;28;20083;-86
2022/07/03 08:57:00;;;;;;;7.68;5.80;;;;;;;29.08;48.47;100681.38;5030097;28;20029;-82
2022/07/03 08:59:40;;;;;;;10.25;4.70;;;;;;;29.17;46.68;100696.13;5030120;28;20036;-83
2022/07/03 09:02:06;;;;;;;6.38;4.50;;;;;;;29.24;46.93;100680.84;5029903;28;20035;-80
2022/07/03 09:04:33;;;;;;;10.82;5.53;;;;;;;29.20;46.19;100643.72;5029908;28;20022;-78
2022/07/03 09:06:59;;;;;;;10.77;5.25;;;;;;;29.67;45.43;100687.16;5029763;28;20033;-80
2022/07/03 09:09:25;;;;;;;14.57;5.88;;;;;;;29.75;47.42;100687.75;5011614;28;20029;-86
2022/07/03 09:11:51;;;;;;;9.45;4.95;;;;;;;29.48;44.35;100620.53;5012284;28;20120;-85
2022/07/03 09:14:17;;;;;;;8.60;5.20;;;;;;;29.97;48.94;100681.56;5029911;28;20056;-84
2022/07/03 09:16:43;;;;;;;12.40;5.90;;;;;;;30.06;49.12;100681.22;5012524;28;20034;-85
2022/07/03 09:19:08;;;;;;;10.55;5.07;;;;;;;30.16;48.63;100684.38;5029862;28;20060;-86
2022/07/03 09:21:38;;;;;;;8.05;4.78;;;;;;;30.05;43.91;100666.16;5029398;28;20033;-86
2022/07/03 09:24:07;;;;;;;7.45;4.85;;;;;;;30.36;43.01;100682.63;5012181;28;20025;-87
2022/07/03 09:26:33;;;;;;;8.18;4.90;;;;;;;30.07;43.48;100632.38;5012235;28;20030;-85
2022/07/03 09:28:58;;;;;;;10.38;5.15;;;;;;;30.34;43.16;100662.28;4991776;28;20540;-84
2022/07/03 09:31:29;;;;;;;8.10;4.50;;;;;;;30.68;41.93;100678.63;4991759;28;20043;-84
2022/07/03 09:34:01;;;;;;;17.65;5.25;;;;;;;30.84;43.61;100678.78;4986523;28;20935;-87
2022/07/03 09:36:45;;;;;;;12.00;4.38;;;;;;;30.85;40.05;100685.00;4975612;28;20520;-86
2022/07/03 09:39:29;;;;;;;7.25;3.97;;;;;;;31.02;41.19;100682.44;4991864;28;20046;-84
2022/07/03 09:42:03;;;;;;;7.00;4.40;;;;;;;31.08;44.97;100655.53;4991728;28;20030;-84
2022/07/03 09:44:41;;;;;;;9.45;4.25;;;;;;;31.25;41.04;100673.41;4991356;28;20042;-86
2022/07/03 09:47:11;;;;;;;8.18;4.35;;;;;;;31.34;39.89;100645.47;4975425;28;20109;-86
2022/07/03 09:49:55;;;;;;;;;;;;;;;31.47;39.92;100667.06;4992050;28;20046;-86
2022/07/03 09:52:32;;;;;;;12.68;4.88;;;;;;;31.61;40.71;100663.75;4991401;28;19984;-87
2022/07/03 09:54:59;;;;;;;7.88;4.03;;;;;;;31.65;39.73;100652.00;4991305;28;20057;-87
2022/07/03 09:57:28;;;;;;;5.38;3.50;;;;;;;31.78;41.08;100653.13;4975489;28;20038;-86
2022/07/03 10:00:13;;;;;;;9.00;4.38;;;;;;;32.03;39.08;100659.94;4993802;28;20508;-86
2022/07/03 10:03:12;;;;;;;7.18;4.10;;;;;;;32.23;38.57;100658.97;5033188;28;20034;-86
2022/07/03 10:05:39;;;;;;;5.65;4.40;;;;;;;32.33;38.66;100640.66;4968310;28;20031;-85
2022/07/03 10:08:14;;;;;;;8.68;4.28;;;;;;;32.48;37.79;100646.16;4991496;28;20406;-86
2022/07/03 10:10:45;;;;;;;7.03;4.18;;;;;;;32.45;38.46;100643.63;4991409;28;20038;-83
2022/07/03 10:13:10;;;;;;;8.10;4.45;;;;;;;32.55;42.10;100640.41;4991461;28;20042;-83
2022/07/03 10:15:37;;;;;;;5.57;3.88;;;;;;;32.29;38.18;100585.66;4991043;28;20129;-83
2022/07/03 10:18:11;;;;;;;6.72;3.97;;;;;;;32.55;41.80;100631.50;4991203;28;20039;-85
2022/07/03 10:20:57;;;;;;;5.90;4.00;;;;;;;32.64;42.21;100628.34;4974995;28;20027;-82
2022/07/03 10:23:22;;;;;;;8.98;4.20;;;;;;;32.36;40.91;100575.50;4991202;28;20042;-82
2022/07/03 10:25:49;;;;;;;7.05;4.22;;;;;;;32.69;38.78;100628.13;4971348;28;20095;-81
2022/07/03 10:28:17;;;;;;;10.48;4.35;;;;;;;32.80;40.42;100619.53;4987833;28;20502;-82
2022/07/03 10:30:44;;;;;;;7.43;4.03;;;;;;;33.05;38.02;100619.94;4971556;28;20034;-85
2022/07/03 10:33:09;;;;;;;5.38;4.10;;;;;;;32.91;38.60;100558.31;4970328;28;20022;-82
2022/07/03 10:35:37;;;;;;;5.47;3.97;;;;;;;33.33;38.43;100591.66;4990841;28;20104;-89
2022/07/03 10:38:03;;;;;;;6.83;3.90;;;;;;;33.42;37.87;100578.72;4971194;28;20035;-90
2022/07/03 10:46:30;;;;;;;7.28;4.10;;;;;;;33.82;34.87;100612.09;4990586;28;20038;-84
2022/07/03 10:49:01;;;;;;;8.52;3.92;;;;;;;33.97;35.67;100610.34;4974183;28;20419;-83
2022/07/03 10:51:29;;;;;;;7.00;4.03;;;;;;;34.01;35.21;100613.69;4970650;28;20111;-87
2022/07/03 10:54:16;;;;;;;5.90;3.63;;;;;;;33.91;33.99;100546.41;4970819;28;20123;-86
2022/07/03 10:57:00;;;;;;;13.40;4.43;;;;;;;34.45;33.50;100595.91;4954788;28;20133;-86
2022/07/03 10:59:31;;;;;;;12.40;3.85;;;;;;;34.44;33.85;100605.75;4971124;28;20116;-86
2022/07/03 11:02:27;;;;;;;4.55;3.28;;;;;;;34.51;33.94;100603.56;4970845;28;20120;-86
2022/07/03 11:05:01;;;;;;;10.02;3.40;;;;;;;34.54;31.64;100589.97;4894275;29;20188;-84
2022/07/03 11:07:47;;;;;;;5.72;3.70;;;;;;;34.58;32.92;100583.47;4878789;29;20100;-85
2022/07/03 11:10:16;;;;;;;6.93;3.45;;;;;;;34.34;34.60;100593.84;4883892;29;20049;-83
2022/07/03 11:13:07;;;;;;;7.03;3.90;;;;;;;34.50;34.05;100599.16;4875274;29;20521;-88
2022/07/03 11:15:44;;;;;;;6.78;3.60;;;;;;;34.56;36.05;100592.53;4893862;29;20120;-86
2022/07/03 11:18:10;;;;;;;7.43;4.10;;;;;;;34.50;33.84;100586.59;4894269;29;20048;-89
2022/07/03 11:20:41;;;;;;;10.30;3.95;;;;;;;34.65;32.05;100575.91;4894231;29;20469;-88
2022/07/03 11:23:09;;;;;;;6.88;3.30;;;;;;;34.76;34.50;100569.88;4895791;29;20048;-90
2022/07/03 11:25:41;;;;;;;9.35;3.30;;;;;;;34.53;33.93;100582.03;4897152;29;20131;-90
2022/07/03 11:28:07;;;;;;;6.30;3.28;;;;;;;34.33;34.20;100551.91;4913496;29;20172;-90
2022/07/03 11:30:33;;;;;;;7.28;3.58;;;;;;;34.36;32.95;100530.34;4896696;29;20032;-91
2022/07/03 11:33:00;;;;;;;5.50;3.20;;;;;;;34.24;31.12;100498.91;4904650;29;20040;-87
2022/07/03 11:35:54;;;;;;;11.07;3.88;;;;;;;34.67;32.65;100547.16;4912845;29;20172;-91
2022/07/03 11:38:25;;;;;;;8.82;3.50;;;;;;;35.03;32.48;100555.66;4912537;29;20043;-80
2022/07/03 11:40:52;;;;;;;3.80;3.00;;;;;;;34.93;30.09;100507.09;4920092;28;20020;-84
2022/07/03 11:43:18;;;;;;;7.80;3.33;;;;;;;35.21;32.01;100543.72;5008588;28;20048;-86